createdAt,value
2024-03-22T00:00:22.000Z,1022.48
2024-03-22T00:01:22.000Z,1022.48
2024-03-22T00:02:22.000Z,1022.47
2024-03-22T00:03:22.000Z,1022.46
2024-03-22T00:04:22.000Z,1022.51
2024-03-22T00:05:23.000Z,1022.54
2024-03-22T00:06:22.000Z,1022.57
2024-03-22T00:07:22.000Z,1022.57
2024-03-22T00:08:31.000Z,1022.62
2024-03-22T00:09:22.000Z,1022.63
2024-03-22T00:10:23.000Z,1022.67
2024-03-22T00:11:22.000Z,1022.69
2024-03-22T00:12:23.000Z,1022.69
2024-03-22T00:13:22.000Z,1022.69
2024-03-22T00:14:23.000Z,1022.69
2024-03-22T00:15:22.000Z,1022.7
2024-03-22T00:16:23.000Z,1022.7
2024-03-22T00:17:22.000Z,1022.73
2024-03-22T00:18:22.000Z,1022.73
2024-03-22T00:19:23.000Z,1022.72
2024-03-22T00:20:22.000Z,1022.76
2024-03-22T00:21:22.000Z,1022.73
2024-03-22T00:22:25.000Z,1022.71
2024-03-22T00:23:23.000Z,1022.73
2024-03-22T00:24:22.000Z,1022.73
2024-03-22T00:25:22.000Z,1022.7
2024-03-22T00:26:23.000Z,1022.7
2024-03-22T00:27:22.000Z,1022.69
2024-03-22T00:28:23.000Z,1022.73
2024-03-22T00:29:25.000Z,1022.67
2024-03-22T00:30:23.000Z,1022.67
2024-03-22T00:31:22.000Z,1022.62
2024-03-22T00:32:22.000Z,1022.62
2024-03-22T00:33:22.000Z,1022.62
2024-03-22T00:34:26.000Z,1022.64
2024-03-22T00:35:23.000Z,1022.64
2024-03-22T00:36:26.000Z,1022.63
2024-03-22T00:37:22.000Z,1022.59
2024-03-22T00:38:22.000Z,1022.58
2024-03-22T00:39:30.000Z,1022.61
2024-03-22T00:40:22.000Z,1022.62
2024-03-22T00:41:22.000Z,1022.63
2024-03-22T00:42:22.000Z,1022.59
2024-03-22T00:43:22.000Z,1022.58
2024-03-22T00:44:22.000Z,1022.54
2024-03-22T00:45:22.000Z,1022.55
2024-03-22T00:46:22.000Z,1022.54
2024-03-22T00:47:22.000Z,1022.57
2024-03-22T00:48:22.000Z,1022.59
2024-03-22T00:49:22.000Z,1022.59
2024-03-22T00:50:22.000Z,1022.58
2024-03-22T00:51:30.000Z,1022.6
2024-03-22T00:52:27.000Z,1022.58
2024-03-22T00:53:25.000Z,1022.56
2024-03-22T00:54:25.000Z,1022.57
2024-03-22T00:55:22.000Z,1022.59
2024-03-22T00:56:22.000Z,1022.55
2024-03-22T00:57:22.000Z,1022.55
2024-03-22T00:58:22.000Z,1022.57
2024-03-22T00:59:22.000Z,1022.55
2024-03-22T01:00:22.000Z,1022.51
2024-03-22T01:01:22.000Z,1022.54
2024-03-22T01:02:23.000Z,1022.49
2024-03-22T01:03:22.000Z,1022.55
2024-03-22T01:04:22.000Z,1022.57
2024-03-22T01:05:22.000Z,1022.59
2024-03-22T01:06:26.000Z,1022.63
2024-03-22T01:07:22.000Z,1022.64
2024-03-22T01:08:31.000Z,1022.59
2024-03-22T01:09:22.000Z,1022.58
2024-03-22T01:10:22.000Z,1022.57
2024-03-22T01:11:22.000Z,1022.62
2024-03-22T01:12:25.000Z,1022.67
2024-03-22T01:13:22.000Z,1022.6
2024-03-22T01:14:25.000Z,1022.68
2024-03-22T01:15:22.000Z,1022.65
2024-03-22T01:16:22.000Z,1022.6
2024-03-22T01:17:23.000Z,1022.66
2024-03-22T01:18:22.000Z,1022.62
2024-03-22T01:19:23.000Z,1022.64
2024-03-22T01:20:30.000Z,1022.64
2024-03-22T01:21:26.000Z,1022.69
2024-03-22T01:22:22.000Z,1022.68
2024-03-22T01:23:22.000Z,1022.72
2024-03-22T01:24:22.000Z,1022.71
2024-03-22T01:25:23.000Z,1022.69
2024-03-22T01:26:22.000Z,1022.75
2024-03-22T01:27:22.000Z,1022.75
2024-03-22T01:28:23.000Z,1022.75
2024-03-22T01:29:23.000Z,1022.78
2024-03-22T01:30:22.000Z,1022.79
2024-03-22T01:31:22.000Z,1022.77
2024-03-22T01:32:22.000Z,1022.77
2024-03-22T01:33:22.000Z,1022.79
2024-03-22T01:34:25.000Z,1022.77
2024-03-22T01:35:22.000Z,1022.77
2024-03-22T01:36:22.000Z,1022.75
2024-03-22T01:37:22.000Z,1022.76
2024-03-22T01:38:22.000Z,1022.73
2024-03-22T01:39:22.000Z,1022.71
2024-03-22T01:40:22.000Z,1022.72
2024-03-22T01:41:22.000Z,1022.76
2024-03-22T01:42:22.000Z,1022.76
2024-03-22T01:43:22.000Z,1022.7
2024-03-22T01:44:28.000Z,1022.73
2024-03-22T01:45:24.000Z,1022.67
2024-03-22T01:46:22.000Z,1022.66
2024-03-22T01:47:22.000Z,1022.61
2024-03-22T01:48:22.000Z,1022.61
2024-03-22T01:49:25.000Z,1022.61
2024-03-22T01:50:22.000Z,1022.57
2024-03-22T01:51:23.000Z,1022.59
2024-03-22T01:52:23.000Z,1022.58
2024-03-22T01:53:24.000Z,1022.59
2024-03-22T01:54:22.000Z,1022.63
2024-03-22T01:55:24.000Z,1022.63
2024-03-22T01:56:22.000Z,1022.62
2024-03-22T01:57:23.000Z,1022.6
2024-03-22T01:58:23.000Z,1022.63
2024-03-22T01:59:28.000Z,1022.64
2024-03-22T02:00:25.000Z,1022.64
2024-03-22T02:01:22.000Z,1022.64
2024-03-22T02:02:22.000Z,1022.6
2024-03-22T02:03:23.000Z,1022.58
2024-03-22T02:04:22.000Z,1022.55
2024-03-22T02:05:23.000Z,1022.53
2024-03-22T02:06:22.000Z,1022.59
2024-03-22T02:07:30.000Z,1022.56
2024-03-22T02:08:27.000Z,1022.57
2024-03-22T02:09:22.000Z,1022.51
2024-03-22T02:10:22.000Z,1022.49
2024-03-22T02:11:22.000Z,1022.48
2024-03-22T02:12:22.000Z,1022.49
2024-03-22T02:13:26.000Z,1022.49
2024-03-22T02:14:22.000Z,1022.49
2024-03-22T02:15:24.000Z,1022.46
2024-03-22T02:16:22.000Z,1022.48
2024-03-22T02:17:22.000Z,1022.48
2024-03-22T02:18:22.000Z,1022.46
2024-03-22T02:19:22.000Z,1022.49
2024-03-22T02:20:23.000Z,1022.45
2024-03-22T02:21:25.000Z,1022.46
2024-03-22T02:22:23.000Z,1022.43
2024-03-22T02:23:33.000Z,1022.41
2024-03-22T02:24:22.000Z,1022.45
2024-03-22T02:25:22.000Z,1022.45
2024-03-22T02:26:22.000Z,1022.46
2024-03-22T02:27:22.000Z,1022.49
2024-03-22T02:28:23.000Z,1022.5
2024-03-22T02:29:22.000Z,1022.51
2024-03-22T02:30:25.000Z,1022.48
2024-03-22T02:31:22.000Z,1022.46
2024-03-22T02:32:22.000Z,1022.49
2024-03-22T02:33:22.000Z,1022.46
2024-03-22T02:34:23.000Z,1022.45
2024-03-22T02:35:22.000Z,1022.43
2024-03-22T02:36:22.000Z,1022.48
2024-03-22T02:37:36.000Z,1022.42
2024-03-22T02:38:22.000Z,1022.4
2024-03-22T02:39:22.000Z,1022.39
2024-03-22T02:40:22.000Z,1022.35
2024-03-22T02:41:22.000Z,1022.35
2024-03-22T02:42:30.000Z,1022.37
2024-03-22T02:43:38.000Z,1022.37
2024-03-22T02:44:22.000Z,1022.39
2024-03-22T02:45:22.000Z,1022.35
2024-03-22T02:46:22.000Z,1022.34
2024-03-22T02:47:23.000Z,1022.32
2024-03-22T02:48:22.000Z,1022.27
2024-03-22T02:49:22.000Z,1022.28
2024-03-22T02:50:22.000Z,1022.28
2024-03-22T02:51:22.000Z,1022.29
2024-03-22T02:52:22.000Z,1022.3
2024-03-22T02:53:23.000Z,1022.29
2024-03-22T02:54:22.000Z,1022.3
2024-03-22T02:55:22.000Z,1022.31
2024-03-22T02:56:22.000Z,1022.3
2024-03-22T02:57:22.000Z,1022.32
2024-03-22T02:58:23.000Z,1022.29
2024-03-22T02:59:25.000Z,1022.26
2024-03-22T03:00:23.000Z,1022.29
2024-03-22T03:01:22.000Z,1022.28
2024-03-22T03:02:23.000Z,1022.32
2024-03-22T03:03:22.000Z,1022.31
2024-03-22T03:04:23.000Z,1022.31
2024-03-22T03:05:23.000Z,1022.3
2024-03-22T03:06:22.000Z,1022.25
2024-03-22T03:07:25.000Z,1022.27
2024-03-22T03:08:23.000Z,1022.26
2024-03-22T03:09:22.000Z,1022.26
2024-03-22T03:10:22.000Z,1022.26
2024-03-22T03:11:22.000Z,1022.22
2024-03-22T03:12:22.000Z,1022.26
2024-03-22T03:13:22.000Z,1022.22
2024-03-22T03:14:22.000Z,1022.26
2024-03-22T03:15:22.000Z,1022.22
2024-03-22T03:16:22.000Z,1022.24
2024-03-22T03:17:24.000Z,1022.18
2024-03-22T03:18:22.000Z,1022.19
2024-03-22T03:19:30.000Z,1022.16
2024-03-22T03:20:23.000Z,1022.14
2024-03-22T03:21:23.000Z,1022.18
2024-03-22T03:22:23.000Z,1022.19
2024-03-22T03:23:23.000Z,1022.16
2024-03-22T03:24:23.000Z,1022.19
2024-03-22T03:25:23.000Z,1022.21
2024-03-22T03:26:22.000Z,1022.21
2024-03-22T03:27:23.000Z,1022.22
2024-03-22T03:28:23.000Z,1022.2
2024-03-22T03:29:26.000Z,1022.18
2024-03-22T03:30:23.000Z,1022.2
2024-03-22T03:31:22.000Z,1022.19
2024-03-22T03:32:23.000Z,1022.17
2024-03-22T03:33:26.000Z,1022.17
2024-03-22T03:34:23.000Z,1022.14
2024-03-22T03:35:27.000Z,1022.2
2024-03-22T03:36:23.000Z,1022.17
2024-03-22T03:37:23.000Z,1022.13
2024-03-22T03:38:23.000Z,1022.17
2024-03-22T03:39:22.000Z,1022.19
2024-03-22T03:40:23.000Z,1022.16
2024-03-22T03:41:28.000Z,1022.18
2024-03-22T03:42:23.000Z,1022.17
2024-03-22T03:43:22.000Z,1022.16
2024-03-22T03:44:28.000Z,1022.18
2024-03-22T03:45:31.000Z,1022.25
2024-03-22T03:46:23.000Z,1022.23
2024-03-22T03:47:23.000Z,1022.25
2024-03-22T03:48:23.000Z,1022.22
2024-03-22T03:49:23.000Z,1022.22
2024-03-22T03:50:23.000Z,1022.25
2024-03-22T03:51:28.000Z,1022.19
2024-03-22T03:52:23.000Z,1022.17
2024-03-22T03:53:23.000Z,1022.14
2024-03-22T03:54:23.000Z,1022.14
2024-03-22T03:55:26.000Z,1022.17
2024-03-22T03:56:28.000Z,1022.14
2024-03-22T03:57:27.000Z,1022.06
2024-03-22T03:58:23.000Z,1022.11
2024-03-22T03:59:23.000Z,1022.09
2024-03-22T04:00:23.000Z,1022.05
2024-03-22T04:01:24.000Z,1022.05
2024-03-22T04:02:26.000Z,1022
2024-03-22T04:03:26.000Z,1022.04
2024-03-22T04:04:23.000Z,1022.04
2024-03-22T04:05:23.000Z,1022.07
2024-03-22T04:06:22.000Z,1022.08
2024-03-22T04:07:23.000Z,1022.02
2024-03-22T04:08:23.000Z,1022.07
2024-03-22T04:09:28.000Z,1022.06
2024-03-22T04:10:23.000Z,1021.98
2024-03-22T04:11:23.000Z,1021.99
2024-03-22T04:12:23.000Z,1021.96
2024-03-22T04:13:24.000Z,1022
2024-03-22T04:14:23.000Z,1021.96
2024-03-22T04:15:24.000Z,1021.97
2024-03-22T04:16:23.000Z,1021.98
2024-03-22T04:17:23.000Z,1021.98
2024-03-22T04:18:23.000Z,1021.99
2024-03-22T04:19:29.000Z,1021.97
2024-03-22T04:20:23.000Z,1021.95
2024-03-22T04:21:33.000Z,1022.02
2024-03-22T04:22:31.000Z,1022.01
2024-03-22T04:23:24.000Z,1022.03
2024-03-22T04:24:23.000Z,1022.07
2024-03-22T04:25:23.000Z,1022.01
2024-03-22T04:26:22.000Z,1022.01
2024-03-22T04:27:22.000Z,1022.03
2024-03-22T04:28:23.000Z,1022.06
2024-03-22T04:29:22.000Z,1022.09
2024-03-22T04:30:23.000Z,1022.1
2024-03-22T04:31:23.000Z,1022.07
2024-03-22T04:32:23.000Z,1022.05
2024-03-22T04:33:23.000Z,1022.08
2024-03-22T04:34:23.000Z,1022.06
2024-03-22T04:35:23.000Z,1022.06
2024-03-22T04:36:23.000Z,1022.08
2024-03-22T04:37:26.000Z,1022.04
2024-03-22T04:38:23.000Z,1022.06
2024-03-22T04:39:23.000Z,1022.07
2024-03-22T04:40:22.000Z,1022.04
2024-03-22T04:41:23.000Z,1022.05
2024-03-22T04:42:23.000Z,1022.07
2024-03-22T04:43:24.000Z,1022.09
2024-03-22T04:44:23.000Z,1022.11
2024-03-22T04:45:23.000Z,1022.14
2024-03-22T04:46:22.000Z,1022.11
2024-03-22T04:47:23.000Z,1022.09
2024-03-22T04:48:23.000Z,1022.14
2024-03-22T04:49:23.000Z,1022.11
2024-03-22T04:50:22.000Z,1022.15
2024-03-22T04:51:22.000Z,1022.21
2024-03-22T04:52:23.000Z,1022.19
2024-03-22T04:53:23.000Z,1022.18
2024-03-22T04:54:29.000Z,1022.2
2024-03-22T04:55:25.000Z,1022.18
2024-03-22T04:56:23.000Z,1022.17
2024-03-22T04:57:22.000Z,1022.19
2024-03-22T04:58:23.000Z,1022.21
2024-03-22T04:59:22.000Z,1022.2
2024-03-22T05:00:22.000Z,1022.22
2024-03-22T05:01:30.000Z,1022.21
2024-03-22T05:02:24.000Z,1022.22
2024-03-22T05:03:22.000Z,1022.23
2024-03-22T05:04:22.000Z,1022.25
2024-03-22T05:05:22.000Z,1022.29
2024-03-22T05:06:22.000Z,1022.28
2024-03-22T05:07:22.000Z,1022.29
2024-03-22T05:08:22.000Z,1022.3
2024-03-22T05:09:22.000Z,1022.18
2024-03-22T05:10:22.000Z,1022.3
2024-03-22T05:11:22.000Z,1022.35
2024-03-22T05:12:22.000Z,1022.32
2024-03-22T05:13:23.000Z,1022.33
2024-03-22T05:14:23.000Z,1022.29
2024-03-22T05:15:22.000Z,1022.3
2024-03-22T05:16:22.000Z,1022.31
2024-03-22T05:17:22.000Z,1022.32
2024-03-22T05:18:22.000Z,1022.35
2024-03-22T05:19:22.000Z,1022.36
2024-03-22T05:20:22.000Z,1022.4
2024-03-22T05:21:22.000Z,1022.38
2024-03-22T05:22:23.000Z,1022.26
2024-03-22T05:23:22.000Z,1022.39
2024-03-22T05:24:22.000Z,1022.4
2024-03-22T05:25:22.000Z,1022.4
2024-03-22T05:26:22.000Z,1022.4
2024-03-22T05:27:22.000Z,1022.5
2024-03-22T05:28:22.000Z,1022.45
2024-03-22T05:29:22.000Z,1022.43
2024-03-22T05:30:22.000Z,1022.44
2024-03-22T05:31:22.000Z,1022.46
2024-03-22T05:32:25.000Z,1022.47
2024-03-22T05:33:25.000Z,1022.52
2024-03-22T05:34:22.000Z,1022.49
2024-03-22T05:35:22.000Z,1022.51
2024-03-22T05:36:22.000Z,1022.54
2024-03-22T05:37:22.000Z,1022.55
2024-03-22T05:38:22.000Z,1022.54
2024-03-22T05:39:22.000Z,1022.54
2024-03-22T05:40:22.000Z,1022.57
2024-03-22T05:41:22.000Z,1022.56
2024-03-22T05:42:23.000Z,1022.54
2024-03-22T05:43:22.000Z,1022.55
2024-03-22T05:44:22.000Z,1022.54
2024-03-22T05:45:27.000Z,1022.58
2024-03-22T05:46:22.000Z,1022.54
2024-03-22T05:47:22.000Z,1022.53
2024-03-22T05:48:22.000Z,1022.53
2024-03-22T05:49:28.000Z,1022.53
2024-03-22T05:50:23.000Z,1022.55
2024-03-22T05:51:22.000Z,1022.58
2024-03-22T05:52:23.000Z,1022.56
2024-03-22T05:53:22.000Z,1022.57
2024-03-22T05:54:25.000Z,1022.6
2024-03-22T05:55:22.000Z,1022.6
2024-03-22T05:56:23.000Z,1022.6
2024-03-22T05:57:23.000Z,1022.61
2024-03-22T05:58:22.000Z,1022.57
2024-03-22T05:59:22.000Z,1022.62
2024-03-22T06:00:22.000Z,1022.63
2024-03-22T06:01:25.000Z,1022.66
2024-03-22T06:02:25.000Z,1022.65
2024-03-22T06:03:23.000Z,1022.6
2024-03-22T06:04:23.000Z,1022.62
2024-03-22T06:05:22.000Z,1022.6
2024-03-22T06:06:26.000Z,1022.6
2024-03-22T06:07:22.000Z,1022.56
2024-03-22T06:08:22.000Z,1022.58
2024-03-22T06:09:26.000Z,1022.6
2024-03-22T06:10:23.000Z,1022.55
2024-03-22T06:11:35.000Z,1022.59
2024-03-22T06:12:25.000Z,1022.58
2024-03-22T06:13:23.000Z,1022.63
2024-03-22T06:14:22.000Z,1022.6
2024-03-22T06:15:24.000Z,1022.59
2024-03-22T06:16:22.000Z,1022.6
2024-03-22T06:17:22.000Z,1022.58
2024-03-22T06:18:22.000Z,1022.59
2024-03-22T06:19:23.000Z,1022.6
2024-03-22T06:20:22.000Z,1022.62
2024-03-22T06:21:26.000Z,1022.61
2024-03-22T06:22:22.000Z,1022.61
2024-03-22T06:23:23.000Z,1022.64
2024-03-22T06:24:26.000Z,1022.61
2024-03-22T06:25:22.000Z,1022.6
2024-03-22T06:26:22.000Z,1022.56
2024-03-22T06:27:26.000Z,1022.59
2024-03-22T06:28:23.000Z,1022.57
2024-03-22T06:29:26.000Z,1022.55
2024-03-22T06:30:22.000Z,1022.52
2024-03-22T06:31:22.000Z,1022.5
2024-03-22T06:32:22.000Z,1022.56
2024-03-22T06:33:23.000Z,1022.53
2024-03-22T06:34:22.000Z,1022.52
2024-03-22T06:35:22.000Z,1022.5
2024-03-22T06:36:23.000Z,1022.48
2024-03-22T06:37:22.000Z,1022.48
2024-03-22T06:38:22.000Z,1022.48
2024-03-22T06:39:28.000Z,1022.5
2024-03-22T06:40:22.000Z,1022.5
2024-03-22T06:41:23.000Z,1022.48
2024-03-22T06:42:22.000Z,1022.49
2024-03-22T06:43:22.000Z,1022.49
2024-03-22T06:44:22.000Z,1022.47
2024-03-22T06:45:23.000Z,1022.44
2024-03-22T06:46:22.000Z,1022.44
2024-03-22T06:47:24.000Z,1022.44
2024-03-22T06:48:22.000Z,1022.44
2024-03-22T06:49:22.000Z,1022.41
2024-03-22T06:50:25.000Z,1022.42
2024-03-22T06:51:22.000Z,1022.43
2024-03-22T06:52:22.000Z,1022.42
2024-03-22T06:53:22.000Z,1022.42
2024-03-22T06:54:22.000Z,1022.41
2024-03-22T06:55:23.000Z,1022.43
2024-03-22T06:56:23.000Z,1022.43
2024-03-22T06:57:22.000Z,1022.44
2024-03-22T06:58:25.000Z,1022.41
2024-03-22T06:59:35.000Z,1022.41
2024-03-22T07:00:22.000Z,1022.42
2024-03-22T07:01:22.000Z,1022.46
2024-03-22T07:02:23.000Z,1022.44
2024-03-22T07:03:24.000Z,1022.42
2024-03-22T07:04:22.000Z,1022.39
2024-03-22T07:05:23.000Z,1022.4
2024-03-22T07:06:22.000Z,1022.41
2024-03-22T07:07:23.000Z,1022.45
2024-03-22T07:08:22.000Z,1022.45
2024-03-22T07:09:22.000Z,1022.45
2024-03-22T07:10:23.000Z,1022.49
2024-03-22T07:11:25.000Z,1022.41
2024-03-22T07:12:23.000Z,1022.44
2024-03-22T07:13:22.000Z,1022.45
2024-03-22T07:14:22.000Z,1022.43
2024-03-22T07:15:24.000Z,1022.4
2024-03-22T07:16:22.000Z,1022.42
2024-03-22T07:17:25.000Z,1022.42
2024-03-22T07:18:22.000Z,1022.43
2024-03-22T07:19:22.000Z,1022.44
2024-03-22T07:20:22.000Z,1022.4
2024-03-22T07:21:30.000Z,1022.42
2024-03-22T07:22:22.000Z,1022.38
2024-03-22T07:23:22.000Z,1022.39
2024-03-22T07:24:25.000Z,1022.41
2024-03-22T07:25:22.000Z,1022.38
2024-03-22T07:26:22.000Z,1022.35
2024-03-22T07:27:22.000Z,1022.36
2024-03-22T07:28:23.000Z,1022.34
2024-03-22T07:29:22.000Z,1022.32
2024-03-22T07:30:22.000Z,1022.3
2024-03-22T07:31:22.000Z,1022.29
2024-03-22T07:32:22.000Z,1022.31
2024-03-22T07:33:23.000Z,1022.33
2024-03-22T07:34:23.000Z,1022.31
2024-03-22T07:35:22.000Z,1022.35
2024-03-22T07:36:22.000Z,1022.35
2024-03-22T07:37:22.000Z,1022.35
2024-03-22T07:38:22.000Z,1022.32
2024-03-22T07:39:22.000Z,1022.34
2024-03-22T07:40:22.000Z,1022.36
2024-03-22T07:41:23.000Z,1022.35
2024-03-22T07:42:23.000Z,1022.32
2024-03-22T07:43:22.000Z,1022.32
2024-03-22T07:44:22.000Z,1022.29
2024-03-22T07:45:22.000Z,1022.31
2024-03-22T07:46:23.000Z,1022.25
2024-03-22T07:47:23.000Z,1022.29
2024-03-22T07:48:22.000Z,1022.33
2024-03-22T07:49:23.000Z,1022.28
2024-03-22T07:50:22.000Z,1022.29
2024-03-22T07:51:22.000Z,1022.27
2024-03-22T07:52:22.000Z,1022.26
2024-03-22T07:53:26.000Z,1022.27
2024-03-22T07:54:22.000Z,1022.25
2024-03-22T07:55:24.000Z,1022.25
2024-03-22T07:56:23.000Z,1022.24
2024-03-22T07:57:25.000Z,1022.23
2024-03-22T07:58:22.000Z,1022.18
2024-03-22T07:59:22.000Z,1022.23
2024-03-22T08:00:22.000Z,1022.15
2024-03-22T08:01:22.000Z,1022.17
2024-03-22T08:02:22.000Z,1022.17
2024-03-22T08:03:23.000Z,1022.17
2024-03-22T08:04:22.000Z,1022.2
2024-03-22T08:05:23.000Z,1022.17
2024-03-22T08:06:25.000Z,1022.12
2024-03-22T08:07:22.000Z,1022.12
2024-03-22T08:08:22.000Z,1022.08
2024-03-22T08:09:23.000Z,1022.07
2024-03-22T08:10:22.000Z,1022
2024-03-22T08:11:22.000Z,1022.01
2024-03-22T08:12:25.000Z,1021.95
2024-03-22T08:13:22.000Z,1021.99
2024-03-22T08:14:22.000Z,1021.96
2024-03-22T08:15:22.000Z,1021.88
2024-03-22T08:16:22.000Z,1021.89
2024-03-22T08:17:22.000Z,1021.91
2024-03-22T08:18:22.000Z,1021.91
2024-03-22T08:19:23.000Z,1021.89
2024-03-22T08:20:22.000Z,1021.9
2024-03-22T08:21:23.000Z,1021.89
2024-03-22T08:22:22.000Z,1021.91
2024-03-22T08:23:24.000Z,1021.87
2024-03-22T08:24:23.000Z,1021.88
2024-03-22T08:25:23.000Z,1021.85
2024-03-22T08:26:25.000Z,1021.79
2024-03-22T08:27:42.000Z,1021.79
2024-03-22T08:28:48.000Z,1021.8
2024-03-22T08:29:47.000Z,1021.75
2024-03-22T08:30:42.000Z,1021.71
2024-03-22T08:31:42.000Z,1021.69
2024-03-22T08:32:48.000Z,1021.67
2024-03-22T08:33:42.000Z,1021.71
2024-03-22T08:34:43.000Z,1021.71
2024-03-22T08:35:43.000Z,1021.69
2024-03-22T08:36:43.000Z,1021.67
2024-03-22T08:37:42.000Z,1021.63
2024-03-22T08:38:42.000Z,1021.66
2024-03-22T08:39:42.000Z,1021.64
2024-03-22T08:40:43.000Z,1021.66
2024-03-22T08:41:43.000Z,1021.65
2024-03-22T08:42:43.000Z,1021.65
2024-03-22T08:43:42.000Z,1021.64
2024-03-22T08:44:42.000Z,1021.66
2024-03-22T08:45:42.000Z,1021.62
2024-03-22T08:46:42.000Z,1021.65
2024-03-22T08:47:42.000Z,1021.58
2024-03-22T08:48:42.000Z,1021.59
2024-03-22T08:49:42.000Z,1021.58
2024-03-22T08:50:43.000Z,1021.57
2024-03-22T08:51:42.000Z,1021.6
2024-03-22T08:52:42.000Z,1021.58
2024-03-22T08:53:45.000Z,1021.57
2024-03-22T08:54:45.000Z,1021.57
2024-03-22T08:55:48.000Z,1021.55
2024-03-22T08:56:42.000Z,1021.52
2024-03-22T08:57:42.000Z,1021.55
2024-03-22T08:58:42.000Z,1021.55
2024-03-22T08:59:42.000Z,1021.54
2024-03-22T09:00:28.000Z,1021.54
2024-03-22T09:01:31.000Z,1021.47
2024-03-22T09:02:22.000Z,1021.5
2024-03-22T09:03:23.000Z,1021.46
2024-03-22T09:04:22.000Z,1021.51
2024-03-22T09:05:22.000Z,1021.47
2024-03-22T09:06:23.000Z,1021.48
2024-03-22T09:07:22.000Z,1021.48
2024-03-22T09:08:31.000Z,1021.43
2024-03-22T09:09:25.000Z,1021.44
2024-03-22T09:10:22.000Z,1021.42
2024-03-22T09:11:23.000Z,1021.43
2024-03-22T09:12:22.000Z,1021.39
2024-03-22T09:13:22.000Z,1021.43
2024-03-22T09:14:22.000Z,1021.38
2024-03-22T09:15:27.000Z,1021.37
2024-03-22T09:16:24.000Z,1021.35
2024-03-22T09:17:22.000Z,1021.31
2024-03-22T09:18:23.000Z,1021.34
2024-03-22T09:19:23.000Z,1021.34
2024-03-22T09:20:22.000Z,1021.3
2024-03-22T09:21:23.000Z,1021.31
2024-03-22T09:22:23.000Z,1021.26
2024-03-22T09:23:23.000Z,1021.27
2024-03-22T09:24:22.000Z,1021.24
2024-03-22T09:25:27.000Z,1021.23
2024-03-22T09:26:22.000Z,1021.22
2024-03-22T09:27:23.000Z,1021.24
2024-03-22T09:28:22.000Z,1021.18
2024-03-22T09:29:22.000Z,1021.16
2024-03-22T09:30:24.000Z,1021.18
2024-03-22T09:31:22.000Z,1021.17
2024-03-22T09:32:22.000Z,1021.18
2024-03-22T09:33:23.000Z,1021.13
2024-03-22T09:34:22.000Z,1021.12
2024-03-22T09:35:22.000Z,1021.13
2024-03-22T09:36:26.000Z,1021.14
2024-03-22T09:37:24.000Z,1021.1
2024-03-22T09:38:22.000Z,1021.11
2024-03-22T09:39:22.000Z,1021.06
2024-03-22T09:40:23.000Z,1021.05
2024-03-22T09:41:26.000Z,1021.06
2024-03-22T09:42:25.000Z,1021.07
2024-03-22T09:43:23.000Z,1021.07
2024-03-22T09:44:27.000Z,1021
2024-03-22T09:45:24.000Z,1021.01
2024-03-22T09:46:32.000Z,1020.97
2024-03-22T09:47:24.000Z,1021
2024-03-22T09:48:24.000Z,1021.01
2024-03-22T09:49:25.000Z,1020.97
2024-03-22T09:50:23.000Z,1020.97
2024-03-22T09:51:24.000Z,1020.98
2024-03-22T09:52:23.000Z,1020.96
2024-03-22T09:53:25.000Z,1020.96
2024-03-22T09:54:25.000Z,1020.96
2024-03-22T09:55:25.000Z,1020.95
2024-03-22T09:56:25.000Z,1020.92
2024-03-22T09:57:26.000Z,1020.95
2024-03-22T09:58:23.000Z,1020.91
2024-03-22T09:59:23.000Z,1020.92
2024-03-22T10:00:26.000Z,1020.94
2024-03-22T10:01:24.000Z,1020.89
2024-03-22T10:02:23.000Z,1020.85
2024-03-22T10:03:22.000Z,1020.86
2024-03-22T10:04:22.000Z,1020.83
2024-03-22T10:05:26.000Z,1020.77
2024-03-22T10:06:23.000Z,1020.82
2024-03-22T10:07:23.000Z,1020.77
2024-03-22T10:08:24.000Z,1020.8
2024-03-22T10:09:29.000Z,1020.79
2024-03-22T10:10:23.000Z,1020.81
2024-03-22T10:11:27.000Z,1020.76
2024-03-22T10:12:22.000Z,1020.81
2024-03-22T10:13:30.000Z,1020.73
2024-03-22T10:14:23.000Z,1020.76
2024-03-22T10:15:24.000Z,1020.72
2024-03-22T10:16:23.000Z,1020.73
2024-03-22T10:17:26.000Z,1020.67
2024-03-22T10:18:23.000Z,1020.69
2024-03-22T10:19:23.000Z,1020.7
2024-03-22T10:20:26.000Z,1020.68
2024-03-22T10:21:22.000Z,1020.67
2024-03-22T10:22:22.000Z,1020.66
2024-03-22T10:23:22.000Z,1020.63
2024-03-22T10:24:22.000Z,1020.64
2024-03-22T10:25:23.000Z,1020.64
2024-03-22T10:26:24.000Z,1020.62
2024-03-22T10:27:22.000Z,1020.64
2024-03-22T10:28:22.000Z,1020.61
2024-03-22T10:29:23.000Z,1020.65
2024-03-22T10:30:24.000Z,1020.62
2024-03-22T10:31:23.000Z,1020.55
2024-03-22T10:32:24.000Z,1020.57
2024-03-22T10:33:26.000Z,1020.6
2024-03-22T10:34:24.000Z,1020.54
2024-03-22T10:35:25.000Z,1020.55
2024-03-22T10:36:23.000Z,1020.54
2024-03-22T10:37:24.000Z,1020.52
2024-03-22T10:38:23.000Z,1020.51
2024-03-22T10:39:25.000Z,1020.53
2024-03-22T10:40:23.000Z,1020.52
2024-03-22T10:41:22.000Z,1020.52
2024-03-22T10:42:23.000Z,1020.49
2024-03-22T10:43:22.000Z,1020.47
2024-03-22T10:44:22.000Z,1020.46
2024-03-22T10:45:27.000Z,1020.48
2024-03-22T10:46:30.000Z,1020.46
2024-03-22T10:47:29.000Z,1020.46
2024-03-22T10:48:28.000Z,1020.49
2024-03-22T10:49:23.000Z,1020.41
2024-03-22T10:50:23.000Z,1020.38
2024-03-22T10:51:25.000Z,1020.4
2024-03-22T10:52:23.000Z,1020.4
2024-03-22T10:53:25.000Z,1020.38
2024-03-22T10:54:32.000Z,1020.37
2024-03-22T10:55:30.000Z,1020.35
2024-03-22T10:56:24.000Z,1020.35
2024-03-22T10:57:23.000Z,1020.28
2024-03-22T10:58:24.000Z,1020.28
2024-03-22T10:59:35.000Z,1020.26
2024-03-22T11:00:28.000Z,1020.26
2024-03-22T11:01:24.000Z,1020.25
2024-03-22T11:02:27.000Z,1020.21
2024-03-22T11:03:25.000Z,1020.22
2024-03-22T11:04:30.000Z,1020.16
2024-03-22T11:05:23.000Z,1020.12
2024-03-22T11:06:23.000Z,1020.18
2024-03-22T11:07:22.000Z,1020.15
2024-03-22T11:08:27.000Z,1020.17
2024-03-22T11:09:23.000Z,1020.16
2024-03-22T11:10:28.000Z,1020.15
2024-03-22T11:11:23.000Z,1020.12
2024-03-22T11:12:25.000Z,1020.08
2024-03-22T11:13:23.000Z,1020.1
2024-03-22T11:14:22.000Z,1020.11
2024-03-22T11:15:22.000Z,1020.08
2024-03-22T11:16:22.000Z,1020.07
2024-03-22T11:17:26.000Z,1020.07
2024-03-22T11:18:33.000Z,1020.04
2024-03-22T11:19:22.000Z,1020.06
2024-03-22T11:20:22.000Z,1020
2024-03-22T11:21:25.000Z,1020.03
2024-03-22T11:22:22.000Z,1020
2024-03-22T11:23:22.000Z,1020.01
2024-03-22T11:24:22.000Z,1019.95
2024-03-22T11:25:22.000Z,1019.89
2024-03-22T11:26:22.000Z,1019.88
2024-03-22T11:27:22.000Z,1019.87
2024-03-22T11:28:25.000Z,1019.86
2024-03-22T11:29:22.000Z,1019.87
2024-03-22T11:30:25.000Z,1019.81
2024-03-22T11:31:27.000Z,1019.82
2024-03-22T11:32:26.000Z,1019.79
2024-03-22T11:33:22.000Z,1019.74
2024-03-22T11:34:23.000Z,1019.75
2024-03-22T11:35:23.000Z,1019.72
2024-03-22T11:36:23.000Z,1019.71
2024-03-22T11:37:22.000Z,1019.71
2024-03-22T11:38:22.000Z,1019.66
2024-03-22T11:39:22.000Z,1019.68
2024-03-22T11:40:24.000Z,1019.65
2024-03-22T11:41:28.000Z,1019.62
2024-03-22T11:42:22.000Z,1019.59
2024-03-22T11:43:23.000Z,1019.58
2024-03-22T11:44:24.000Z,1019.54
2024-03-22T11:45:24.000Z,1019.55
2024-03-22T11:46:24.000Z,1019.52
2024-03-22T11:47:23.000Z,1019.52
2024-03-22T11:48:30.000Z,1019.49
2024-03-22T11:49:22.000Z,1019.43
2024-03-22T11:50:22.000Z,1019.39
2024-03-22T11:51:23.000Z,1019.36
2024-03-22T11:52:25.000Z,1019.37
2024-03-22T11:53:22.000Z,1019.35
2024-03-22T11:54:22.000Z,1019.39
2024-03-22T11:55:26.000Z,1019.39
2024-03-22T11:56:35.000Z,1019.33
2024-03-22T11:57:23.000Z,1019.29
2024-03-22T11:58:22.000Z,1019.33
2024-03-22T11:59:22.000Z,1019.31
2024-03-22T12:00:24.000Z,1019.27
2024-03-22T12:02:32.000Z,1019.17
2024-03-22T12:03:31.000Z,1019.17
2024-03-22T12:04:23.000Z,1019.19
2024-03-22T12:05:22.000Z,1019.16
2024-03-22T12:06:22.000Z,1019.17
2024-03-22T12:07:23.000Z,1019.22
2024-03-22T12:08:23.000Z,1019.19
2024-03-22T12:09:22.000Z,1019.13